sensor_id;sensor_type;location;lat;lon;timestamp;pressure;altitude;pressure_sealevel;temperature;humidity
24013;BME280;12220;50.194;18.948;2022-07-05T00:01:26;101932.79;;;24.49;49.20
24013;BME280;12220;50.194;18.948;2022-07-05T00:03:34;101935.23;;;24.52;49.32
24013;BME280;12220;50.194;18.948;2022-07-05T00:05:36;101927.02;;;24.50;49.37
24013;BME280;12220;50.194;18.948;2022-07-05T00:07:38;101927.74;;;24.52;49.42
24013;BME280;12220;50.194;18.948;2022-07-05T00:09:39;101928.60;;;24.53;49.54
24013;BME280;12220;50.194;18.948;2022-07-05T00:11:49;101926.66;;;24.53;49.62
24013;BME280;12220;50.194;18.948;2022-07-05T00:13:50;101927.56;;;24.54;49.54
24013;BME280;12220;50.194;18.948;2022-07-05T00:15:51;101923.70;;;24.55;49.54
24013;BME280;12220;50.194;18.948;2022-07-05T00:17:53;101916.37;;;24.54;49.54
24013;BME280;12220;50.194;18.948;2022-07-05T00:20:04;101916.37;;;24.54;49.49
24013;BME280;12220;50.194;18.948;2022-07-05T00:22:06;101914.77;;;24.51;49.48
24013;BME280;12220;50.194;18.948;2022-07-05T00:24:07;101914.09;;;24.49;49.48
24013;BME280;12220;50.194;18.948;2022-07-05T00:26:08;101919.69;;;24.49;49.54
24013;BME280;12220;50.194;18.948;2022-07-05T00:28:18;101913.36;;;24.47;49.60
24013;BME280;12220;50.194;18.948;2022-07-05T00:30:20;101920.00;;;24.46;49.67
24013;BME280;12220;50.194;18.948;2022-07-05T00:32:21;101920.16;;;24.45;49.70
24013;BME280;12220;50.194;18.948;2022-07-05T00:34:22;101924.22;;;24.42;49.73
24013;BME280;12220;50.194;18.948;2022-07-05T00:36:33;101924.70;;;24.37;49.85
24013;BME280;12220;50.194;18.948;2022-07-05T00:38:34;101920.16;;;24.36;50.01
24013;BME280;12220;50.194;18.948;2022-07-05T00:40:36;101923.83;;;24.37;50.11
24013;BME280;12220;50.194;18.948;2022-07-05T00:42:37;101918.23;;;24.37;50.21
24013;BME280;12220;50.194;18.948;2022-07-05T00:44:48;101917.37;;;24.36;50.27
24013;BME280;12220;50.194;18.948;2022-07-05T00:46:49;101908.24;;;24.34;50.32
24013;BME280;12220;50.194;18.948;2022-07-05T00:48:51;101910.18;;;24.34;50.39
24013;BME280;12220;50.194;18.948;2022-07-05T00:50:53;101919.45;;;24.34;50.48
24013;BME280;12220;50.194;18.948;2022-07-05T00:53:03;101909.48;;;24.32;50.43
24013;BME280;12220;50.194;18.948;2022-07-05T00:55:05;101913.32;;;24.31;50.40
24013;BME280;12220;50.194;18.948;2022-07-05T00:57:06;101908.94;;;24.28;50.43
24013;BME280;12220;50.194;18.948;2022-07-05T00:59:08;101908.24;;;24.26;50.46
24013;BME280;12220;50.194;18.948;2022-07-05T01:01:18;101907.34;;;24.26;50.60
24013;BME280;12220;50.194;18.948;2022-07-05T01:03:19;101912.25;;;24.24;50.83
24013;BME280;12220;50.194;18.948;2022-07-05T01:05:21;101908.72;;;24.22;51.05
24013;BME280;12220;50.194;18.948;2022-07-05T01:07:23;101910.13;;;24.17;51.22
24013;BME280;12220;50.194;18.948;2022-07-05T01:09:33;101912.55;;;24.12;51.22
24013;BME280;12220;50.194;18.948;2022-07-05T01:11:36;101905.35;;;24.10;51.42
24013;BME280;12220;50.194;18.948;2022-07-05T01:13:38;101907.63;;;24.06;51.54
24013;BME280;12220;50.194;18.948;2022-07-05T01:15:40;101916.54;;;24.01;51.72
24013;BME280;12220;50.194;18.948;2022-07-05T01:17:47;101916.88;;;23.98;51.84
24013;BME280;12220;50.194;18.948;2022-07-05T01:19:50;101919.80;;;23.97;52.01
24013;BME280;12220;50.194;18.948;2022-07-05T01:21:52;101919.12;;;23.95;52.07
24013;BME280;12220;50.194;18.948;2022-07-05T01:23:54;101883.80;;;23.67;52.14
24013;BME280;12220;50.194;18.948;2022-07-05T01:26:02;101928.19;;;23.89;52.31
24013;BME280;12220;50.194;18.948;2022-07-05T01:28:04;101928.48;;;23.85;52.52
24013;BME280;12220;50.194;18.948;2022-07-05T01:30:06;101924.09;;;23.83;52.68
24013;BME280;12220;50.194;18.948;2022-07-05T01:32:07;101915.87;;;23.81;52.90
24013;BME280;12220;50.194;18.948;2022-07-05T01:34:17;101918.68;;;23.81;53.14
24013;BME280;12220;50.194;18.948;2022-07-05T01:36:18;101902.23;;;23.78;53.31
24013;BME280;12220;50.194;18.948;2022-07-05T01:38:20;101903.26;;;23.77;53.47
24013;BME280;12220;50.194;18.948;2022-07-05T01:40:21;101902.40;;;23.77;53.56
24013;BME280;12220;50.194;18.948;2022-07-05T01:42:32;101899.77;;;23.75;53.61
24013;BME280;12220;50.194;18.948;2022-07-05T01:44:33;101895.21;;;23.74;53.67
24013;BME280;12220;50.194;18.948;2022-07-05T01:46:34;101902.90;;;23.72;53.80
24013;BME280;12220;50.194;18.948;2022-07-05T01:48:41;101893.95;;;23.68;53.96
24013;BME280;12220;50.194;18.948;2022-07-05T01:50:54;101888.70;;;23.65;53.93
24013;BME280;12220;50.194;18.948;2022-07-05T01:53:17;101889.36;;;23.59;53.96
24013;BME280;12220;50.194;18.948;2022-07-05T01:55:29;101890.73;;;23.55;54.13
24013;BME280;12220;50.194;18.948;2022-07-05T01:57:30;101889.47;;;23.49;54.30
24013;BME280;12220;50.194;18.948;2022-07-05T01:59:38;101880.38;;;23.47;54.46
24013;BME280;12220;50.194;18.948;2022-07-05T02:01:40;101874.23;;;23.44;54.53
24013;BME280;12220;50.194;18.948;2022-07-05T02:03:44;101881.91;;;23.42;54.62
24013;BME280;12220;50.194;18.948;2022-07-05T02:05:47;101878.39;;;23.40;54.74
24013;BME280;12220;50.194;18.948;2022-07-05T02:07:49;101878.55;;;23.38;54.77
24013;BME280;12220;50.194;18.948;2022-07-05T02:09:50;101883.95;;;23.31;54.70
24013;BME280;12220;50.194;18.948;2022-07-05T02:11:59;101880.06;;;23.24;54.68
24013;BME280;12220;50.194;18.948;2022-07-05T02:14:01;101877.19;;;23.16;54.76
24013;BME280;12220;50.194;18.948;2022-07-05T02:16:03;101877.98;;;23.08;54.89
24013;BME280;12220;50.194;18.948;2022-07-05T02:18:06;101882.13;;;23.04;54.95
24013;BME280;12220;50.194;18.948;2022-07-05T02:20:13;101879.67;;;23.01;55.01
24013;BME280;12220;50.194;18.948;2022-07-05T02:22:15;101886.45;;;22.98;55.06
24013;BME280;12220;50.194;18.948;2022-07-05T02:24:17;101890.27;;;22.97;55.14
24013;BME280;12220;50.194;18.948;2022-07-05T02:26:18;101902.80;;;22.93;55.25
24013;BME280;12220;50.194;18.948;2022-07-05T02:28:28;101903.77;;;22.84;55.35
24013;BME280;12220;50.194;18.948;2022-07-05T02:30:31;101898.26;;;22.74;55.49
24013;BME280;12220;50.194;18.948;2022-07-05T02:32:32;101904.50;;;22.68;55.68
24013;BME280;12220;50.194;18.948;2022-07-05T02:34:33;101914.05;;;22.66;55.84
24013;BME280;12220;50.194;18.948;2022-07-05T02:36:43;101915.98;;;22.65;55.95
24013;BME280;12220;50.194;18.948;2022-07-05T02:38:45;101917.90;;;22.65;56.03
24013;BME280;12220;50.194;18.948;2022-07-05T02:40:46;101914.22;;;22.64;56.13
24013;BME280;12220;50.194;18.948;2022-07-05T02:42:47;101910.55;;;22.63;56.14
24013;BME280;12220;50.194;18.948;2022-07-05T02:44:58;101910.55;;;22.63;56.12
24013;BME280;12220;50.194;18.948;2022-07-05T02:46:59;101910.55;;;22.63;56.14
24013;BME280;12220;50.194;18.948;2022-07-05T02:49:00;101921.41;;;22.67;56.19
24013;BME280;12220;50.194;18.948;2022-07-05T02:51:02;101922.10;;;22.69;56.26
24013;BME280;12220;50.194;18.948;2022-07-05T02:53:13;101929.45;;;22.70;56.30
24013;BME280;12220;50.194;18.948;2022-07-05T02:55:14;101926.66;;;22.70;56.34
24013;BME280;12220;50.194;18.948;2022-07-05T02:57:15;101930.36;;;22.70;56.37
24013;BME280;12220;50.194;18.948;2022-07-05T02:59:16;101939.76;;;22.69;56.42
24013;BME280;12220;50.194;18.948;2022-07-05T03:01:28;101936.07;;;22.69;56.36
24013;BME280;12220;50.194;18.948;2022-07-05T03:03:29;101935.20;;;22.68;56.35
24013;BME280;12220;50.194;18.948;2022-07-05T03:05:30;101936.07;;;22.69;56.46
24013;BME280;12220;50.194;18.948;2022-07-05T03:07:31;101934.16;;;22.69;56.54
24013;BME280;12220;50.194;18.948;2022-07-05T03:09:42;101924.20;;;22.67;56.58
24013;BME280;12220;50.194;18.948;2022-07-05T03:11:43;101927.85;;;22.67;56.70
24013;BME280;12220;50.194;18.948;2022-07-05T03:13:45;101891.14;;;22.44;56.79
24013;BME280;12220;50.194;18.948;2022-07-05T03:15:48;101930.48;;;22.69;56.93
24013;BME280;12220;50.194;18.948;2022-07-05T03:17:57;101952.83;;;22.69;56.97
24013;BME280;12220;50.194;18.948;2022-07-05T03:19:59;101940.79;;;22.68;57.11
24013;BME280;12220;50.194;18.948;2022-07-05T03:22:00;101940.63;;;22.70;57.29
24013;BME280;12220;50.194;18.948;2022-07-05T03:24:01;101933.28;;;22.69;57.47
24013;BME280;12220;50.194;18.948;2022-07-05T03:26:12;101937.99;;;22.68;57.68
24013;BME280;12220;50.194;18.948;2022-07-05T03:28:13;101936.39;;;22.66;57.80
24013;BME280;12220;50.194;18.948;2022-07-05T03:30:14;101935.52;;;22.65;58.01
24013;BME280;12220;50.194;18.948;2022-07-05T03:32:16;101936.54;;;22.64;58.20
24013;BME280;12220;50.194;18.948;2022-07-05T03:34:29;101936.70;;;22.62;58.46
24013;BME280;12220;50.194;18.948;2022-07-05T03:36:30;101941.42;;;22.62;58.66
24013;BME280;12220;50.194;18.948;2022-07-05T03:38:32;101933.22;;;22.60;58.99
24013;BME280;12220;50.194;18.948;2022-07-05T03:40:34;101939.82;;;22.59;59.20
24013;BME280;12220;50.194;18.948;2022-07-05T03:42:42;101933.53;;;22.57;59.31
24013;BME280;12220;50.194;18.948;2022-07-05T03:44:43;101929.13;;;22.55;59.54
24013;BME280;12220;50.194;18.948;2022-07-05T03:46:44;101937.66;;;22.53;59.85
24013;BME280;12220;50.194;18.948;2022-07-05T03:48:45;101928.71;;;22.50;60.09
24013;BME280;12220;50.194;18.948;2022-07-05T03:50:57;101939.33;;;22.46;60.25
24013;BME280;12220;50.194;18.948;2022-07-05T03:52:58;101941.38;;;22.44;60.44
24013;BME280;12220;50.194;18.948;2022-07-05T03:54:59;101946.41;;;22.40;60.69
24013;BME280;12220;50.194;18.948;2022-07-05T03:57:00;101949.52;;;22.37;60.91
24013;BME280;12220;50.194;18.948;2022-07-05T03:59:11;101956.13;;;22.36;61.09
24013;BME280;12220;50.194;18.948;2022-07-05T04:01:13;101994.64;;;22.33;61.36
24013;BME280;12220;50.194;18.948;2022-07-05T04:03:14;101959.23;;;22.33;61.50
24013;BME280;12220;50.194;18.948;2022-07-05T04:05:15;101957.30;;;22.34;61.67
24013;BME280;12220;50.194;18.948;2022-07-05T04:07:26;101960.67;;;22.37;61.72
24013;BME280;12220;50.194;18.948;2022-07-05T04:09:28;101954.23;;;22.37;61.84
24013;BME280;12220;50.194;18.948;2022-07-05T04:11:29;101960.84;;;22.36;61.94
24013;BME280;12220;50.194;18.948;2022-07-05T04:13:30;101962.88;;;22.34;62.14
24013;BME280;12220;50.194;18.948;2022-07-05T04:15:41;101966.73;;;22.33;62.23
24013;BME280;12220;50.194;18.948;2022-07-05T04:19:53;101967.45;;;22.25;62.46
24013;BME280;12220;50.194;18.948;2022-07-05T04:21:55;101962.20;;;22.22;62.58
24013;BME280;12220;50.194;18.948;2022-07-05T04:23:58;101963.41;;;22.19;62.66
24013;BME280;12220;50.194;18.948;2022-07-05T04:26:00;101962.82;;;22.16;62.82
24013;BME280;12220;50.194;18.948;2022-07-05T04:28:02;101967.83;;;22.12;62.98
24013;BME280;12220;50.194;18.948;2022-07-05T04:30:04;101967.83;;;22.12;63.15
24013;BME280;12220;50.194;18.948;2022-07-05T04:32:13;101971.64;;;22.11;63.14
24013;BME280;12220;50.194;18.948;2022-07-05T04:34:14;101953.30;;;22.08;63.20
24013;BME280;12220;50.194;18.948;2022-07-05T04:36:15;101968.12;;;22.09;63.39
24013;BME280;12220;50.194;18.948;2022-07-05T04:38:16;101963.74;;;22.06;63.69
24013;BME280;12220;50.194;18.948;2022-07-05T04:40:28;101964.92;;;22.04;63.75
24013;BME280;12220;50.194;18.948;2022-07-05T04:42:29;101974.63;;;22.00;64.47
24013;BME280;12220;50.194;18.948;2022-07-05T04:44:30;101964.65;;;21.97;63.98
24013;BME280;12220;50.194;18.948;2022-07-05T04:46:31;101981.38;;;21.97;64.11
24013;BME280;12220;50.194;18.948;2022-07-05T04:48:43;101978.75;;;21.96;64.15
24013;BME280;12220;50.194;18.948;2022-07-05T04:50:44;101982.44;;;21.96;64.20
24013;BME280;12220;50.194;18.948;2022-07-05T04:52:45;101989.75;;;21.97;64.22
24013;BME280;12220;50.194;18.948;2022-07-05T04:54:46;102004.59;;;21.98;64.36
24013;BME280;12220;50.194;18.948;2022-07-05T04:56:57;101995.02;;;22.00;64.48
24013;BME280;12220;50.194;18.948;2022-07-05T04:58:58;101996.63;;;22.03;64.69
24013;BME280;12220;50.194;18.948;2022-07-05T05:01:00;101994.74;;;22.03;64.82
24013;BME280;12220;50.194;18.948;2022-07-05T05:03:01;101996.33;;;22.06;64.85
24013;BME280;12220;50.194;18.948;2022-07-05T05:05:12;101985.91;;;22.08;65.00
24013;BME280;12220;50.194;18.948;2022-07-05T05:07:13;101986.93;;;22.07;65.10
24013;BME280;12220;50.194;18.948;2022-07-05T05:09:15;101986.93;;;22.07;65.20
24013;BME280;12220;50.194;18.948;2022-07-05T05:11:16;101987.80;;;22.07;65.31
24013;BME280;12220;50.194;18.948;2022-07-05T05:13:27;101985.91;;;22.08;65.40
24013;BME280;12220;50.194;18.948;2022-07-05T05:15:28;101982.06;;;22.09;65.71
24013;BME280;12220;50.194;18.948;2022-07-05T05:17:39;101981.20;;;22.08;65.90
24013;BME280;12220;50.194;18.948;2022-07-05T05:19:40;101983.98;;;22.08;65.96
24013;BME280;12220;50.194;18.948;2022-07-05T05:21:42;101976.63;;;22.07;66.11
24013;BME280;12220;50.194;18.948;2022-07-05T05:23:43;101982.37;;;22.06;66.32
24013;BME280;12220;50.194;18.948;2022-07-05T05:25:44;101977.10;;;22.03;66.64
24013;BME280;12220;50.194;18.948;2022-07-05T05:27:47;101974.47;;;22.01;66.86
24013;BME280;12220;50.194;18.948;2022-07-05T05:29:56;101975.21;;;22.03;66.84
24013;BME280;12220;50.194;18.948;2022-07-05T05:31:58;101976.95;;;22.04;66.91
24013;BME280;12220;50.194;18.948;2022-07-05T05:34:01;102000.01;;;22.06;66.90
24013;BME280;12220;50.194;18.948;2022-07-05T05:36:03;101984.86;;;22.09;66.95
24013;BME280;12220;50.194;18.948;2022-07-05T05:38:11;101986.62;;;22.10;66.94
24013;BME280;12220;50.194;18.948;2022-07-05T05:40:13;101981.04;;;22.10;67.07
24013;BME280;12220;50.194;18.948;2022-07-05T05:42:14;101981.90;;;22.10;67.28
24013;BME280;12220;50.194;18.948;2022-07-05T05:44:15;101972.83;;;22.08;67.59
24013;BME280;12220;50.194;18.948;2022-07-05T05:46:26;101976.09;;;22.04;67.62
24013;BME280;12220;50.194;18.948;2022-07-05T05:48:28;101976.39;;;22.01;67.77
24013;BME280;12220;50.194;18.948;2022-07-05T05:50:32;101986.80;;;21.99;67.91
24013;BME280;12220;50.194;18.948;2022-07-05T05:52:34;101980.37;;;21.98;68.03
24013;BME280;12220;50.194;18.948;2022-07-05T05:54:41;101982.99;;;22.00;68.04
24013;BME280;12220;50.194;18.948;2022-07-05T05:56:42;101947.14;;;21.77;68.20
24013;BME280;12220;50.194;18.948;2022-07-05T05:58:44;101992.98;;;22.02;68.44
24013;BME280;12220;50.194;18.948;2022-07-05T06:00:46;101991.95;;;22.03;68.74
24013;BME280;12220;50.194;18.948;2022-07-05T06:02:56;101996.63;;;22.03;69.00
24013;BME280;12220;50.194;18.948;2022-07-05T06:05:00;102007.07;;;22.01;69.35
24013;BME280;12220;50.194;18.948;2022-07-05T06:07:01;102002.67;;;21.98;69.57
24013;BME280;12220;50.194;18.948;2022-07-05T06:09:02;102011.90;;;21.99;69.74
24013;BME280;12220;50.194;18.948;2022-07-05T06:11:11;102013.67;;;22.00;69.72
24013;BME280;12220;50.194;18.948;2022-07-05T06:13:14;102021.02;;;22.01;69.71
24013;BME280;12220;50.194;18.948;2022-07-05T06:15:16;102020.72;;;22.04;69.67
24013;BME280;12220;50.194;18.948;2022-07-05T06:17:18;102031.41;;;22.08;69.65
24013;BME280;12220;50.194;18.948;2022-07-05T06:19:26;102032.12;;;22.10;69.57
24013;BME280;12220;50.194;18.948;2022-07-05T06:21:27;102040.21;;;22.14;69.62
24013;BME280;12220;50.194;18.948;2022-07-05T06:23:28;102038.13;;;22.16;69.58
24013;BME280;12220;50.194;18.948;2022-07-05T06:25:31;102035.19;;;22.17;69.66
24013;BME280;12220;50.194;18.948;2022-07-05T06:27:42;102034.88;;;22.20;69.59
24013;BME280;12220;50.194;18.948;2022-07-05T06:29:43;102045.02;;;22.21;69.60
24013;BME280;12220;50.194;18.948;2022-07-05T06:31:45;102054.26;;;22.22;69.61
24013;BME280;12220;50.194;18.948;2022-07-05T06:33:46;102061.76;;;22.21;69.72
24013;BME280;12220;50.194;18.948;2022-07-05T06:35:55;102064.70;;;22.20;69.74
24013;BME280;12220;50.194;18.948;2022-07-05T06:38:02;102059.43;;;22.17;69.83
24013;BME280;12220;50.194;18.948;2022-07-05T06:40:04;102065.32;;;22.14;70.08
24013;BME280;12220;50.194;18.948;2022-07-05T06:42:05;102058.27;;;22.09;70.26
24013;BME280;12220;50.194;18.948;2022-07-05T06:44:10;102059.45;;;22.07;70.33
24013;BME280;12220;50.194;18.948;2022-07-05T06:46:11;102049.77;;;22.01;70.50
24013;BME280;12220;50.194;18.948;2022-07-05T06:48:12;102053.59;;;22.00;70.54
24013;BME280;12220;50.194;18.948;2022-07-05T06:50:14;102051.86;;;21.99;70.59
24013;BME280;12220;50.194;18.948;2022-07-05T06:52:25;102049.93;;;22.00;70.61
24013;BME280;12220;50.194;18.948;2022-07-05T06:54:26;102050.79;;;22.00;70.67
24013;BME280;12220;50.194;18.948;2022-07-05T06:56:28;102055.05;;;22.04;70.70
24013;BME280;12220;50.194;18.948;2022-07-05T06:58:29;102051.24;;;22.05;70.70
24013;BME280;12220;50.194;18.948;2022-07-05T07:00:41;102051.08;;;22.07;70.65
24013;BME280;12220;50.194;18.948;2022-07-05T07:02:43;102048.29;;;22.07;70.61
24013;BME280;12220;50.194;18.948;2022-07-05T07:04:44;102044.33;;;22.09;70.59
24013;BME280;12220;50.194;18.948;2022-07-05T07:06:45;102040.36;;;22.12;70.55
24013;BME280;12220;50.194;18.948;2022-07-05T07:08:55;102039.30;;;22.13;70.49
24013;BME280;12220;50.194;18.948;2022-07-05T07:11:16;102041.23;;;22.13;70.48
24013;BME280;12220;50.194;18.948;2022-07-05T07:13:19;102040.36;;;22.12;70.46
24013;BME280;12220;50.194;18.948;2022-07-05T07:15:20;102040.36;;;22.12;70.41
24013;BME280;12220;50.194;18.948;2022-07-05T07:17:23;102037.70;;;22.10;70.42
24013;BME280;12220;50.194;18.948;2022-07-05T07:19:31;102033.02;;;22.11;70.48
24013;BME280;12220;50.194;18.948;2022-07-05T07:21:32;102058.27;;;22.09;70.52
24013;BME280;12220;50.194;18.948;2022-07-05T07:23:33;102034.78;;;22.12;70.76
24013;BME280;12220;50.194;18.948;2022-07-05T07:25:36;102034.64;;;22.14;71.01
24013;BME280;12220;50.194;18.948;2022-07-05T07:27:48;102039.16;;;22.15;71.00
24013;BME280;12220;50.194;18.948;2022-07-05T07:29:50;102032.71;;;22.14;71.12
24013;BME280;12220;50.194;18.948;2022-07-05T07:31:51;102040.21;;;22.14;71.35
24013;BME280;12220;50.194;18.948;2022-07-05T07:33:52;102041.39;;;22.11;71.57
24013;BME280;12220;50.194;18.948;2022-07-05T07:36:01;102045.66;;;22.05;71.74
24013;BME280;12220;50.194;18.948;2022-07-05T07:38:02;102047.14;;;22.00;71.93
24013;BME280;12220;50.194;18.948;2022-07-05T07:40:05;102048.46;;;21.96;72.24
24013;BME280;12220;50.194;18.948;2022-07-05T07:42:08;102041.28;;;21.93;72.45
24013;BME280;12220;50.194;18.948;2022-07-05T07:44:16;102050.85;;;21.90;72.56
24013;BME280;12220;50.194;18.948;2022-07-05T07:46:17;102048.63;;;21.84;72.58
24013;BME280;12220;50.194;18.948;2022-07-05T07:48:18;102046.16;;;21.81;72.68
24013;BME280;12220;50.194;18.948;2022-07-05T07:50:21;102052.77;;;21.80;72.76
24013;BME280;12220;50.194;18.948;2022-07-05T07:52:30;102049.23;;;21.78;72.69
24013;BME280;12220;50.194;18.948;2022-07-05T07:54:34;102054.81;;;21.78;72.74
24013;BME280;12220;50.194;18.948;2022-07-05T07:56:36;102055.86;;;21.77;72.81
24013;BME280;12220;50.194;18.948;2022-07-05T07:58:37;102058.51;;;21.79;72.96
24013;BME280;12220;50.194;18.948;2022-07-05T08:00:45;102056.59;;;21.79;72.85
24013;BME280;12220;50.194;18.948;2022-07-05T08:02:46;102064.80;;;21.81;72.96
24013;BME280;12220;50.194;18.948;2022-07-05T08:04:51;101834.38;;;20.46;72.91
24013;BME280;12220;50.194;18.948;2022-07-05T08:06:52;102066.42;;;21.83;73.08
24013;BME280;12220;50.194;18.948;2022-07-05T08:09:00;102069.92;;;21.85;73.08
24013;BME280;12220;50.194;18.948;2022-07-05T08:11:02;102068.75;;;21.88;73.17
24013;BME280;12220;50.194;18.948;2022-07-05T08:13:03;102073.46;;;21.87;73.22
24013;BME280;12220;50.194;18.948;2022-07-05T08:15:06;102071.39;;;21.89;73.29
24013;BME280;12220;50.194;18.948;2022-07-05T08:17:15;102062.00;;;21.90;73.28
24013;BME280;12220;50.194;18.948;2022-07-05T08:19:18;102064.63;;;21.92;73.28
24013;BME280;12220;50.194;18.948;2022-07-05T08:21:35;102068.90;;;21.96;73.28
24013;BME280;12220;50.194;18.948;2022-07-05T08:23:38;102073.26;;;21.99;73.22
24013;BME280;12220;50.194;18.948;2022-07-05T08:25:40;102061.68;;;22.03;73.17
24013;BME280;12220;50.194;18.948;2022-07-05T08:27:41;102067.81;;;22.07;73.30
24013;BME280;12220;50.194;18.948;2022-07-05T08:29:43;102068.54;;;22.09;73.07
24013;BME280;12220;50.194;18.948;2022-07-05T08:31:47;102073.09;;;22.10;73.05
24013;BME280;12220;50.194;18.948;2022-07-05T08:33:51;102072.94;;;22.11;72.90
24013;BME280;12220;50.194;18.948;2022-07-05T08:35:53;102076.74;;;22.10;72.82
24013;BME280;12220;50.194;18.948;2022-07-05T08:37:54;102084.09;;;22.11;72.88
24013;BME280;12220;50.194;18.948;2022-07-05T08:39:55;102083.79;;;22.15;72.88
24013;BME280;12220;50.194;18.948;2022-07-05T08:42:09;102088.20;;;22.17;72.76
24013;BME280;12220;50.194;18.948;2022-07-05T08:44:14;102087.89;;;22.20;72.80
24013;BME280;12220;50.194;18.948;2022-07-05T08:46:18;102093.32;;;22.22;72.69
24013;BME280;12220;50.194;18.948;2022-07-05T08:48:21;102093.91;;;22.25;72.64
24013;BME280;12220;50.194;18.948;2022-07-05T08:50:23;102089.05;;;22.27;72.59
24013;BME280;12220;50.194;18.948;2022-07-05T08:52:27;102089.94;;;22.28;72.52
24013;BME280;12220;50.194;18.948;2022-07-05T08:54:30;102080.52;;;22.29;72.49
24013;BME280;12220;50.194;18.948;2022-07-05T08:56:33;102085.23;;;22.28;72.46
24013;BME280;12220;50.194;18.948;2022-07-05T08:58:38;102085.23;;;22.28;72.42
24013;BME280;12220;50.194;18.948;2022-07-05T09:00:39;102092.14;;;22.24;72.61
24013;BME280;12220;50.194;18.948;2022-07-05T09:02:41;102088.48;;;22.24;72.62
24013;BME280;12220;50.194;18.948;2022-07-05T09:04:44;102092.45;;;22.21;72.61
24013;BME280;12220;50.194;18.948;2022-07-05T09:06:54;102093.48;;;22.20;72.56
24013;BME280;12220;50.194;18.948;2022-07-05T09:08:58;102091.43;;;22.22;72.52
24013;BME280;12220;50.194;18.948;2022-07-05T09:11:01;102091.12;;;22.25;72.50
24013;BME280;12220;50.194;18.948;2022-07-05T09:13:04;102092.73;;;22.28;72.42
24013;BME280;12220;50.194;18.948;2022-07-05T09:15:06;102090.51;;;22.32;72.39
24013;BME280;12220;50.194;18.948;2022-07-05T09:17:08;102094.94;;;22.34;72.30
24013;BME280;12220;50.194;18.948;2022-07-05T09:19:10;102091.99;;;22.36;72.23
24013;BME280;12220;50.194;18.948;2022-07-05T09:21:20;102085.09;;;22.40;72.14
24013;BME280;12220;50.194;18.948;2022-07-05T09:23:22;102085.79;;;22.42;72.06
24013;BME280;12220;50.194;18.948;2022-07-05T09:25:27;102091.97;;;22.45;71.99
24013;BME280;12220;50.194;18.948;2022-07-05T09:27:32;102099.44;;;22.45;71.79
24013;BME280;12220;50.194;18.948;2022-07-05T09:29:34;102093.71;;;22.46;71.81
24013;BME280;12220;50.194;18.948;2022-07-05T09:31:38;102092.69;;;22.48;71.74
24013;BME280;12220;50.194;18.948;2022-07-05T09:35:56;102092.06;;;22.54;71.41
24013;BME280;12220;50.194;18.948;2022-07-05T09:38:05;102092.65;;;22.57;71.24
24013;BME280;12220;50.194;18.948;2022-07-05T09:40:08;102089.55;;;22.60;71.09
24013;BME280;12220;50.194;18.948;2022-07-05T09:42:22;102096.00;;;22.61;71.03
24013;BME280;12220;50.194;18.948;2022-07-05T09:44:27;102095.13;;;22.60;70.87
24013;BME280;12220;50.194;18.948;2022-07-05T09:46:31;102089.55;;;22.60;70.71
24013;BME280;12220;50.194;18.948;2022-07-05T09:48:34;102086.76;;;22.60;70.51
24013;BME280;12220;50.194;18.948;2022-07-05T09:50:36;102090.58;;;22.59;70.43
24013;BME280;12220;50.194;18.948;2022-07-05T09:52:39;102093.36;;;22.59;70.29
24013;BME280;12220;50.194;18.948;2022-07-05T09:54:59;102086.76;;;22.60;70.14
24013;BME280;12220;50.194;18.948;2022-07-05T09:56:55;102086.44;;;22.63;69.98
24013;BME280;12220;50.194;18.948;2022-07-05T10:01:34;102080.38;;;22.68;69.70
24013;BME280;12220;50.194;18.948;2022-07-05T10:05:53;102085.66;;;22.71;69.30
24013;BME280;12220;50.194;18.948;2022-07-05T10:08:01;102045.23;;;22.48;69.22
24013;BME280;12220;50.194;18.948;2022-07-05T10:10:03;102092.85;;;22.74;69.08
24013;BME280;12220;50.194;18.948;2022-07-05T10:12:05;102091.98;;;22.73;69.00
24013;BME280;12220;50.194;18.948;2022-07-05T10:14:18;102091.84;;;22.75;69.04
24013;BME280;12220;50.194;18.948;2022-07-05T10:16:29;102090.77;;;22.76;68.82
24013;BME280;12220;50.194;18.948;2022-07-05T10:18:30;102091.84;;;22.75;68.80
24013;BME280;12220;50.194;18.948;2022-07-05T10:22:47;102100.91;;;22.77;68.74
24013;BME280;12220;50.194;18.948;2022-07-05T10:24:48;102099.73;;;22.79;68.81
24013;BME280;12220;50.194;18.948;2022-07-05T10:26:50;102099.58;;;22.81;68.78
24013;BME280;12220;50.194;18.948;2022-07-05T10:28:53;102108.50;;;22.85;68.68
24013;BME280;12220;50.194;18.948;2022-07-05T10:30:55;102101.73;;;22.87;68.62
24013;BME280;12220;50.194;18.948;2022-07-05T10:33:01;102105.27;;;22.89;68.51
24013;BME280;12220;50.194;18.948;2022-07-05T10:35:03;102113.34;;;22.92;68.41
24013;BME280;12220;50.194;18.948;2022-07-05T10:37:05;102111.26;;;22.94;68.28
24013;BME280;12220;50.194;18.948;2022-07-05T10:39:08;102108.15;;;22.97;68.23
24013;BME280;12220;50.194;18.948;2022-07-05T10:41:21;102106.09;;;23.00;68.14
24013;BME280;12220;50.194;18.948;2022-07-05T10:43:24;102115.20;;;23.02;68.03
24013;BME280;12220;50.194;18.948;2022-07-05T10:45:32;102110.62;;;23.01;68.03
24013;BME280;12220;50.194;18.948;2022-07-05T10:47:34;102116.05;;;23.02;68.01
24013;BME280;12220;50.194;18.948;2022-07-05T10:49:36;102106.80;;;23.02;67.89
24013;BME280;12220;50.194;18.948;2022-07-05T10:51:38;102111.68;;;23.00;67.88